Time;durP1;ratioP1;P1;durP2;ratioP2;P2;SDS_P1;SDS_P2;PMS_P1;PMS_P2;Temp;Humidity;BMP_temperature;BMP_pressure;BME280_temperature;BME280_humidity;BME280_pressure;Samples;Min_cycle;Max_cycle;Signal;HPM_P1;HPM_P2
2021/03/18 00:01:49;;;;;;;16.52;10.10;;;;;;;6.22;46.71;99856.13;4363336;32;34672;-81
2021/03/18 00:04:17;;;;;;;17.45;9.23;;;;;;;6.08;47.15;99853.84;4365597;32;32319;-81
2021/03/18 00:06:46;;;;;;;21.25;9.80;;;;;;;6.04;47.17;99857.44;4363732;32;33321;-80
2021/03/18 00:09:17;;;;;;;15.98;8.95;;;;;;;6.16;46.84;99853.63;4380435;32;33326;-80
2021/03/18 00:11:46;;;;;;;15.57;8.82;;;;;;;6.16;46.62;99854.50;4375784;32;33715;-80
2021/03/18 00:14:16;;;;;;;16.35;9.52;;;;;;;6.08;46.93;99856.47;4360333;32;34296;-80
2021/03/18 00:16:44;;;;;;;15.95;9.98;;;;;;;6.02;47.16;99840.87;4358121;32;33644;-80
2021/03/18 00:19:12;;;;;;;16.98;9.35;;;;;;;5.87;47.74;99847.31;4355339;32;33347;-80
2021/03/18 00:21:39;;;;;;;15.07;8.57;;;;;;;6.15;46.87;99841.44;4369487;32;34111;-80
2021/03/18 00:24:07;;;;;;;14.90;8.65;;;;;;;6.48;45.69;99846.72;4367543;32;33785;-80
2021/03/18 00:26:35;;;;;;;18.25;9.15;;;;;;;6.37;45.84;99847.87;4363716;32;33401;-80
2021/03/18 00:29:04;;;;;;;17.08;9.90;;;;;;;6.23;45.99;99843.88;4375870;32;33576;-80
2021/03/18 00:31:33;;;;;;;16.73;9.07;;;;;;;6.36;45.61;99851.41;4370927;32;34117;-80
2021/03/18 00:34:03;;;;;;;14.05;8.63;;;;;;;6.39;45.30;99845.19;4369746;32;32421;-80
2021/03/18 00:36:31;;;;;;;16.27;8.75;;;;;;;6.21;46.14;99846.50;4380344;32;33181;-80
2021/03/18 00:38:59;;;;;;;18.67;9.57;;;;;;;6.35;45.38;99844.41;4358922;32;33737;-81
2021/03/18 00:41:27;;;;;;;14.35;9.25;;;;;;;6.21;45.83;99836.03;4357066;32;34639;-80
2021/03/18 00:43:54;;;;;;;16.83;9.88;;;;;;;6.30;45.22;99838.41;4376055;32;33911;-80
2021/03/18 00:46:22;;;;;;;14.63;9.02;;;;;;;6.24;45.39;99841.22;4360483;32;33947;-80
2021/03/18 00:48:50;;;;;;;14.10;8.45;;;;;;;6.44;44.82;99843.31;4356638;32;34492;-80
2021/03/18 00:51:18;;;;;;;15.63;8.48;;;;;;;6.06;46.28;99846.91;4359917;32;34715;-80
2021/03/18 00:53:48;;;;;;;17.67;9.75;;;;;;;6.12;45.77;99842.38;4364537;32;33764;-81
2021/03/18 00:56:19;;;;;;;16.27;9.02;;;;;;;6.10;45.77;99835.44;4375919;32;35542;-80
2021/03/18 00:58:47;;;;;;;14.27;8.95;;;;;;;6.01;45.72;99841.78;4359447;32;34792;-81
2021/03/18 01:01:21;;;;;;;15.40;8.80;;;;;;;6.25;45.31;99837.69;4372449;32;33996;-81
2021/03/18 01:03:49;;;;;;;16.00;9.60;;;;;;;6.08;45.59;99839.88;4365674;32;33878;-81
2021/03/18 01:06:19;;;;;;;15.35;9.00;;;;;;;5.99;46.00;99837.47;4369459;32;34463;-80
2021/03/18 01:08:51;;;;;;;12.77;7.85;;;;;;;6.12;45.39;99841.50;4348593;32;31743;-81
2021/03/18 01:11:24;;;;;;;15.48;9.15;;;;;;;5.97;45.88;99839.25;4373714;32;33842;-81
2021/03/18 01:13:58;;;;;;;14.10;9.05;;;;;;;5.65;47.29;99836.50;4365949;32;34125;-80
2021/03/18 01:16:35;;;;;;;16.42;9.77;;;;;;;5.86;46.37;99842.97;4377898;32;33226;-80
2021/03/18 01:19:06;;;;;;;15.43;8.63;;;;;;;5.84;46.63;99836.91;4377562;32;33845;-80
2021/03/18 01:21:37;;;;;;;14.02;8.88;;;;;;;5.96;45.82;99830.53;4355274;32;33815;-80
2021/03/18 01:24:05;;;;;;;17.48;9.50;;;;;;;6.10;45.34;99832.81;4376578;32;33944;-80
2021/03/18 01:26:33;;;;;;;14.60;8.95;;;;;;;5.71;46.61;99840.72;4372321;32;33571;-80
2021/03/18 01:29:01;;;;;;;15.45;9.48;;;;;;;5.92;45.64;99833.28;4385720;32;33561;-80
2021/03/18 01:31:28;;;;;;;13.00;8.75;;;;;;;5.85;45.71;99828.16;4351811;32;35269;-80
2021/03/18 01:33:56;;;;;;;16.60;9.30;;;;;;;5.69;46.48;99826.78;4369437;32;33226;-80
2021/03/18 01:36:24;;;;;;;18.08;8.57;;;;;;;5.72;46.44;99826.72;4358577;32;33489;-80
2021/03/18 01:38:52;;;;;;;20.23;9.90;;;;;;;5.83;45.64;99822.06;4363902;32;34602;-80
2021/03/18 01:41:21;;;;;;;16.75;9.55;;;;;;;5.49;47.00;99818.53;4382262;32;32391;-80
2021/03/18 01:43:49;;;;;;;15.70;8.60;;;;;;;5.47;46.50;99822.94;4377256;32;33237;-80
2021/03/18 01:46:17;;;;;;;13.43;7.85;;;;;;;5.71;45.71;99826.75;4359299;32;33434;-80
2021/03/18 01:48:45;;;;;;;15.07;8.93;;;;;;;5.59;46.44;99825.28;4378418;32;34508;-80
2021/03/18 01:51:15;;;;;;;13.95;8.55;;;;;;;5.68;45.90;99829.44;4350705;32;34499;-81
2021/03/18 01:53:42;;;;;;;12.70;8.10;;;;;;;5.10;47.98;99832.47;4385774;32;33251;-80
2021/03/18 01:56:09;;;;;;;14.32;8.23;;;;;;;5.35;47.04;99837.16;4356336;32;34667;-81
2021/03/18 01:58:37;;;;;;;12.63;7.60;;;;;;;5.25;47.32;99831.25;4372300;32;34736;-81
2021/03/18 02:01:07;;;;;;;15.18;9.23;;;;;;;5.22;47.38;99833.97;4372066;32;34384;-81
2021/03/18 02:03:36;;;;;;;13.18;7.93;;;;;;;5.23;47.32;99830.44;4370392;32;33187;-81
2021/03/18 02:06:05;;;;;;;14.57;8.93;;;;;;;5.52;46.58;99823.72;4365097;32;33716;-81
2021/03/18 02:08:33;;;;;;;15.45;9.18;;;;;;;5.73;45.75;99822.34;4379202;32;33553;-81
2021/03/18 02:11:02;;;;;;;15.10;8.70;;;;;;;5.53;46.30;99826.28;4372997;32;33765;-81
2021/03/18 02:13:30;;;;;;;13.95;8.45;;;;;;;5.22;47.23;99835.69;4361564;32;34149;-81
2021/03/18 02:16:06;;;;;;;11.43;7.80;;;;;;;5.42;46.47;99824.81;4375458;32;33638;-81
2021/03/18 02:19:00;;;;;;;19.98;8.98;;;;;;;5.49;46.17;99822.00;4371609;32;33433;-81
2021/03/18 02:21:36;;;;;;;17.67;9.07;;;;;;;5.49;46.55;99832.47;4361999;32;34215;-81
2021/03/18 02:24:29;;;;;;;12.80;8.07;;;;;;;5.32;47.07;99826.78;4377986;32;32882;-81
2021/03/18 02:27:12;;;;;;;12.55;7.60;;;;;;;5.29;46.83;99827.69;4382800;32;33691;-81
2021/03/18 02:29:48;;;;;;;17.42;8.98;;;;;;;5.56;45.88;99826.22;4374618;32;33930;-81
2021/03/18 02:32:47;;;;;;;13.35;8.25;;;;;;;5.40;46.36;99830.94;4366605;32;33985;-81
2021/03/18 02:35:27;;;;;;;14.13;8.75;;;;;;;5.26;46.40;99837.34;4366814;32;33959;-81
2021/03/18 02:38:04;;;;;;;14.25;8.75;;;;;;;5.39;46.74;99837.06;4369044;32;34338;-80
2021/03/18 02:40:34;;;;;;;15.25;8.25;;;;;;;5.29;46.96;99840.78;4373966;32;33804;-80
2021/03/18 02:43:07;;;;;;;14.32;8.40;;;;;;;5.22;47.45;99836.59;4376422;32;33236;-79
2021/03/18 02:45:40;;;;;;;11.35;7.53;;;;;;;5.39;47.09;99842.31;4370128;32;32985;-79
2021/03/18 02:48:11;;;;;;;15.70;8.73;;;;;;;5.21;47.42;99850.53;4359584;32;33297;-79
2021/03/18 02:50:40;;;;;;;17.20;9.82;;;;;;;5.18;47.71;99849.78;4368868;32;33847;-79
2021/03/18 02:53:08;;;;;;;13.45;8.98;;;;;;;5.21;47.89;99854.91;4370783;32;34579;-79
2021/03/18 02:55:37;;;;;;;19.90;9.25;;;;;;;5.29;47.52;99853.00;4373839;32;32984;-79
2021/03/18 02:58:05;;;;;;;19.10;9.45;;;;;;;5.43;46.82;99850.97;4382052;32;34393;-80
2021/03/18 03:00:33;;;;;;;15.60;9.02;;;;;;;5.35;47.06;99853.72;4376091;32;33578;-80
2021/03/18 03:03:01;;;;;;;13.02;9.10;;;;;;;5.28;47.47;99841.69;4380461;32;34364;-80
2021/03/18 03:05:38;;;;;;;15.25;8.55;;;;;;;5.13;47.94;99844.62;4499744;31;146623;-79
2021/03/18 03:08:08;;;;;;;12.88;8.82;;;;;;;5.18;47.84;99853.25;4476331;32;32278;-79
2021/03/18 03:10:36;;;;;;;16.67;9.35;;;;;;;5.40;47.06;99851.88;4475564;32;32528;-79
2021/03/18 03:13:04;;;;;;;15.43;10.30;;;;;;;5.35;47.33;99847.63;4474120;32;34258;-78
2021/03/18 03:15:32;;;;;;;14.68;8.88;;;;;;;4.97;48.36;99851.06;4488780;32;32358;-79
2021/03/18 03:18:02;;;;;;;12.85;8.35;;;;;;;5.44;47.31;99846.56;4480218;32;32768;-79
2021/03/18 03:20:30;;;;;;;15.68;8.98;;;;;;;5.01;48.23;99852.72;4491524;31;33259;-80
2021/03/18 03:22:59;;;;;;;13.85;9.25;;;;;;;5.20;48.04;99848.81;4477343;32;33857;-80
2021/03/18 03:25:27;;;;;;;19.30;9.73;;;;;;;5.21;48.14;99853.16;4489904;31;33454;-79
2021/03/18 03:27:55;;;;;;;18.95;9.90;;;;;;;4.58;49.59;99858.78;4474099;32;33769;-80
2021/03/18 03:30:23;;;;;;;16.30;10.00;;;;;;;4.27;50.78;99861.94;4492337;32;33649;-79
2021/03/18 03:32:51;;;;;;;16.00;9.38;;;;;;;4.47;50.37;99861.59;4463327;32;36336;-79
2021/03/18 03:35:20;;;;;;;15.88;9.02;;;;;;;4.77;49.55;99869.75;4478253;32;34457;-80
2021/03/18 03:37:48;;;;;;;17.55;9.15;;;;;;;4.90;49.11;99863.41;4476038;32;32920;-79
2021/03/18 03:40:17;;;;;;;15.80;9.63;;;;;;;4.92;49.20;99864.22;4488295;31;33524;-79
2021/03/18 03:42:45;;;;;;;13.48;8.43;;;;;;;4.86;49.14;99865.22;4465399;31;34234;-79
2021/03/18 03:45:14;;;;;;;14.75;8.70;;;;;;;4.72;49.54;99861.13;4476523;32;32882;-79
2021/03/18 03:47:44;;;;;;;15.60;9.25;;;;;;;4.85;49.34;99865.25;4476003;32;32908;-79
2021/03/18 03:50:16;;;;;;;13.98;9.02;;;;;;;4.87;49.41;99866.94;4463375;32;34165;-79
2021/03/18 03:52:50;;;;;;;;;;;;;;;4.81;49.62;99861.81;4473245;32;33340;-79
2021/03/18 03:55:40;;;;;;;19.70;9.38;;;;;;;5.05;49.05;99860.47;4488455;32;33745;-79
2021/03/18 03:58:46;;;;;;;18.37;10.50;;;;;;;5.29;48.00;99858.25;4476990;32;32190;-79
2021/03/18 04:01:25;;;;;;;18.12;9.50;;;;;;;5.22;48.25;99860.16;4489250;32;33663;-79
2021/03/18 04:04:07;;;;;;;19.95;10.30;;;;;;;5.21;48.43;99860.16;4488631;31;32872;-82
2021/03/18 04:06:36;;;;;;;16.23;10.05;;;;;;;5.24;48.25;99866.19;4474547;32;33596;-81
2021/03/18 04:09:06;;;;;;;22.30;10.77;;;;;;;5.03;49.11;99874.47;4478497;32;32903;-82
2021/03/18 04:11:35;;;;;;;17.75;9.43;;;;;;;5.02;48.84;99876.22;4478709;32;33197;-82
2021/03/18 04:14:04;;;;;;;17.87;10.38;;;;;;;4.96;49.32;99872.88;4477141;32;33309;-81
2021/03/18 04:16:32;;;;;;;18.90;11.50;;;;;;;5.19;48.72;99869.81;4469238;32;33316;-82
2021/03/18 04:19:00;;;;;;;16.98;9.98;;;;;;;4.92;49.76;99873.84;4467058;32;33193;-81
2021/03/18 04:21:29;;;;;;;15.55;9.48;;;;;;;5.09;48.95;99887.47;4467284;32;33802;-82
2021/03/18 04:24:01;;;;;;;18.58;10.95;;;;;;;4.95;49.26;99879.87;4477733;32;33222;-82
2021/03/18 04:26:30;;;;;;;15.77;10.10;;;;;;;4.84;50.01;99882.72;4468435;32;33486;-81
2021/03/18 04:29:00;;;;;;;18.98;10.50;;;;;;;4.79;50.28;99884.53;4480955;32;32893;-82
2021/03/18 04:31:27;;;;;;;21.65;10.57;;;;;;;4.70;50.63;99889.94;4467237;32;33629;-82
2021/03/18 04:33:56;;;;;;;17.30;11.38;;;;;;;4.92;49.65;99876.44;4454669;32;36243;-82
2021/03/18 04:36:24;;;;;;;19.62;11.35;;;;;;;4.70;50.73;99884.72;4490326;31;33327;-83
2021/03/18 04:38:51;;;;;;;16.20;10.65;;;;;;;4.23;51.57;99888.16;4452630;32;33833;-83
2021/03/18 04:41:18;;;;;;;19.67;11.65;;;;;;;4.63;51.17;99883.09;4468329;32;32592;-83
2021/03/18 04:43:46;;;;;;;17.77;10.75;;;;;;;4.83;50.50;99891.44;4480637;32;32577;-82
2021/03/18 04:46:13;;;;;;;20.27;10.80;;;;;;;4.81;50.66;99887.13;4479535;32;32936;-82
2021/03/18 04:48:42;;;;;;;18.52;11.18;;;;;;;4.53;51.56;99886.78;4454113;32;33973;-82
2021/03/18 04:51:10;;;;;;;17.80;10.82;;;;;;;4.71;51.06;99891.66;4453739;32;34294;-82
2021/03/18 04:53:39;;;;;;;19.25;11.10;;;;;;;4.78;51.08;99888.03;4477283;32;33850;-83
2021/03/18 04:56:07;;;;;;;20.90;11.93;;;;;;;4.73;51.15;99889.03;4464581;32;34395;-82
2021/03/18 04:58:36;;;;;;;16.92;10.95;;;;;;;4.55;51.48;99892.81;4463245;31;34945;-82
2021/03/18 05:01:04;;;;;;;19.83;10.52;;;;;;;4.85;50.68;99888.81;4480049;31;34588;-82
2021/03/18 05:03:33;;;;;;;18.33;11.45;;;;;;;4.83;50.80;99886.19;4476623;32;33535;-82
2021/03/18 05:06:04;;;;;;;15.98;10.88;;;;;;;4.57;51.74;99894.53;4464125;32;33077;-82
2021/03/18 05:08:32;;;;;;;18.33;10.82;;;;;;;4.99;50.50;99886.78;4480131;31;33161;-83
2021/03/18 05:11:00;;;;;;;19.17;11.50;;;;;;;5.10;50.28;99887.41;4465661;32;33675;-82
2021/03/18 05:13:30;;;;;;;21.60;12.27;;;;;;;5.20;50.26;99901.19;4474944;32;34767;-82
2021/03/18 05:15:58;;;;;;;18.67;11.77;;;;;;;5.14;50.41;99898.69;4474969;32;34242;-81
2021/03/18 05:18:26;;;;;;;20.25;10.95;;;;;;;5.34;49.90;99893.91;4458994;32;34311;-82
2021/03/18 05:20:55;;;;;;;26.02;12.02;;;;;;;5.21;50.37;99899.44;4465575;32;33640;-82
2021/03/18 05:23:23;;;;;;;23.10;12.20;;;;;;;4.90;50.90;99901.78;4466911;32;35082;-82
2021/03/18 05:25:50;;;;;;;22.00;11.02;;;;;;;5.11;50.49;99902.22;4455813;32;33609;-82
2021/03/18 05:28:18;;;;;;;18.77;12.37;;;;;;;5.40;49.77;99901.63;4442937;32;35123;-82
2021/03/18 05:30:45;;;;;;;21.10;12.55;;;;;;;4.96;50.76;99906.91;4442693;32;35528;-82
2021/03/18 05:33:13;;;;;;;19.95;11.30;;;;;;;5.17;50.67;99897.75;4456591;32;33732;-81
2021/03/18 05:35:42;;;;;;;23.27;11.32;;;;;;;5.23;50.31;99906.38;4468566;32;32976;-82
2021/03/18 05:38:12;;;;;;;22.95;12.73;;;;;;;5.28;50.26;99907.13;4458818;32;33958;-82
2021/03/18 05:40:40;;;;;;;21.65;12.57;;;;;;;4.73;52.08;99913.41;4456626;32;34186;-82
2021/03/18 05:43:08;;;;;;;23.52;12.75;;;;;;;4.88;51.88;99907.91;4470650;32;33728;-82
2021/03/18 05:45:36;;;;;;;21.00;12.37;;;;;;;5.02;51.48;99915.47;4454785;32;33574;-81
2021/03/18 05:48:04;;;;;;;22.02;12.63;;;;;;;5.19;50.99;99914.31;4464157;32;33812;-82
2021/03/18 05:50:33;;;;;;;23.55;13.00;;;;;;;4.95;51.79;99910.41;4459152;32;34030;-82
2021/03/18 05:53:03;;;;;;;29.08;13.15;;;;;;;4.91;52.30;99913.97;4468973;32;34551;-82
2021/03/18 05:55:31;;;;;;;23.85;13.52;;;;;;;5.12;51.61;99914.41;4451201;32;34384;-82
2021/03/18 05:57:59;;;;;;;23.52;14.30;;;;;;;5.32;50.86;99911.41;4471254;32;32864;-82
2021/03/18 06:00:29;;;;;;;26.05;14.38;;;;;;;5.24;51.67;99917.69;4457758;32;33615;-82
2021/03/18 06:02:56;;;;;;;25.67;13.93;;;;;;;5.03;52.40;99922.47;4462066;32;34985;-81
2021/03/18 06:05:24;;;;;;;27.13;15.38;;;;;;;4.54;53.54;99925.09;4465613;32;35084;-81
2021/03/18 06:07:51;;;;;;;24.40;13.73;;;;;;;5.21;51.88;99928.22;4463305;32;33033;-82
2021/03/18 06:10:21;;;;;;;25.00;15.07;;;;;;;5.36;51.46;99926.19;4450378;32;32291;-81
2021/03/18 06:12:50;;;;;;;25.73;13.90;;;;;;;5.23;52.02;99932.53;4462667;32;33618;-81
2021/03/18 06:15:18;;;;;;;26.42;14.50;;;;;;;5.28;51.97;99933.31;4475684;31;34589;-82
2021/03/18 06:17:46;;;;;;;27.23;14.15;;;;;;;5.36;52.05;99934.03;4461071;32;31840;-81
2021/03/18 06:20:21;;;;;;;32.42;17.65;;;;;;;5.25;52.58;99933.37;4451869;32;34916;-81
2021/03/18 06:22:51;;;;;;;24.63;15.57;;;;;;;5.38;52.25;99934.84;4476232;32;33420;-81
2021/03/18 06:25:24;;;;;;;27.70;15.75;;;;;;;5.49;52.17;99939.84;4460553;32;33370;-81
2021/03/18 06:28:10;;;;;;;22.80;14.27;;;;;;;5.61;51.56;99933.50;4471118;32;32916;-81
2021/03/18 06:30:38;;;;;;;25.40;14.35;;;;;;;5.93;50.78;99934.56;4471477;32;33297;-81
2021/03/18 06:33:19;;;;;;;28.67;14.20;;;;;;;6.02;50.61;99939.63;4452772;32;33470;-80
2021/03/18 06:35:47;;;;;;;23.62;13.82;;;;;;;5.93;51.10;99942.44;4454689;32;32923;-80
2021/03/18 06:38:15;;;;;;;22.33;14.38;;;;;;;5.94;51.26;99934.56;4453051;32;31632;-80
2021/03/18 06:40:46;;;;;;;25.08;14.85;;;;;;;6.12;50.37;99933.25;4439618;32;34749;-80
2021/03/18 06:43:13;;;;;;;27.98;15.65;;;;;;;6.19;50.33;99934.00;4463039;32;33227;-81
2021/03/18 06:45:43;;;;;;;24.58;14.55;;;;;;;6.24;50.37;99940.00;4466160;32;32418;-80
2021/03/18 06:48:18;;;;;;;24.98;14.98;;;;;;;5.66;52.59;99947.37;4454583;32;33636;-82
2021/03/18 06:50:47;;;;;;;26.85;15.55;;;;;;;5.81;51.77;99941.78;4472425;32;34286;-79
2021/03/18 06:53:25;;;;;;;29.98;15.73;;;;;;;5.95;51.71;99948.53;4475026;32;34012;-79
2021/03/18 06:55:53;;;;;;;21.60;14.38;;;;;;;6.29;50.63;99941.59;4452487;32;35199;-79
2021/03/18 06:58:26;;;;;;;28.23;15.98;;;;;;;5.92;51.80;99948.59;4445489;32;34319;-78
2021/03/18 07:00:57;;;;;;;27.95;14.60;;;;;;;6.09;51.22;99941.22;4449729;32;34104;-78
2021/03/18 07:03:31;;;;;;;27.95;15.10;;;;;;;5.64;52.65;99938.66;4438921;32;35101;-78
2021/03/18 07:06:00;;;;;;;25.30;15.35;;;;;;;6.12;51.28;99946.38;4457880;32;34676;-79
2021/03/18 07:08:35;;;;;;;27.05;15.93;;;;;;;6.54;50.09;99941.84;4462158;31;32811;-79
2021/03/18 07:11:17;;;;;;;23.85;15.15;;;;;;;6.48;50.26;99936.75;4438928;32;34625;-79
2021/03/18 07:13:45;;;;;;;24.42;15.23;;;;;;;6.46;50.36;99930.72;4440760;32;33488;-79
2021/03/18 07:16:14;;;;;;;23.48;14.80;;;;;;;5.83;52.64;99934.75;4474898;31;34453;-79
2021/03/18 07:18:42;;;;;;;26.80;15.55;;;;;;;6.17;51.32;99931.38;4453471;32;33074;-79
2021/03/18 07:21:12;;;;;;;25.98;15.90;;;;;;;5.95;52.05;99930.19;4452616;32;34235;-79
2021/03/18 07:23:43;;;;;;;26.87;16.50;;;;;;;6.18;51.77;99934.91;4465840;31;33164;-80
2021/03/18 07:26:18;;;;;;;27.13;16.05;;;;;;;6.44;51.31;99937.72;4458863;32;31536;-79
2021/03/18 07:28:51;;;;;;;30.65;15.70;;;;;;;6.50;51.05;99931.47;4462978;32;33120;-79
2021/03/18 07:31:20;;;;;;;24.58;15.40;;;;;;;6.73;50.56;99933.50;4462707;32;31329;-79
2021/03/18 07:33:49;;;;;;;27.75;16.33;;;;;;;6.50;50.75;99934.94;4456159;32;35138;-79
2021/03/18 07:36:17;;;;;;;26.33;15.95;;;;;;;6.77;49.61;99936.03;4457372;32;33352;-79
2021/03/18 07:38:44;;;;;;;29.35;16.55;;;;;;;6.77;49.88;99930.78;4469065;32;33206;-79
2021/03/18 07:41:17;;;;;;;24.73;16.25;;;;;;;6.61;50.09;99932.09;4446191;32;30574;-79
2021/03/18 07:43:46;;;;;;;25.85;16.48;;;;;;;6.18;51.39;99933.13;4460853;32;33263;-79
2021/03/18 07:46:19;;;;;;;25.52;16.62;;;;;;;6.85;49.75;99928.81;4469157;32;32953;-79
2021/03/18 07:48:50;;;;;;;24.52;16.37;;;;;;;6.77;50.25;99936.03;4457770;32;33752;-79
2021/03/18 07:51:20;;;;;;;27.08;15.15;;;;;;;7.04;49.72;99944.09;4472437;32;32985;-79
2021/03/18 07:53:53;;;;;;;25.25;15.25;;;;;;;7.13;49.17;99938.59;4463746;32;33340;-79
2021/03/18 07:56:20;;;;;;;24.15;16.37;;;;;;;7.14;48.87;99940.31;4458880;32;34013;-79
2021/03/18 07:58:49;;;;;;;24.92;15.38;;;;;;;7.17;49.14;99945.47;4463149;32;33685;-79
2021/03/18 08:01:46;;;;;;;23.42;15.63;;;;;;;7.25;48.88;99937.38;4455333;32;34424;-79
2021/03/18 08:04:15;;;;;;;26.73;15.43;;;;;;;7.18;48.89;99928.81;4460298;32;33332;-79
2021/03/18 08:06:52;;;;;;;23.17;15.07;;;;;;;7.15;49.11;99931.50;4476513;31;34771;-79
2021/03/18 08:09:45;;;;;;;25.12;15.93;;;;;;;7.58;47.50;99925.87;4450368;32;35289;-79
2021/03/18 08:12:12;;;;;;;23.48;14.75;;;;;;;7.68;47.86;99927.34;4452301;32;34242;-80
2021/03/18 08:14:40;;;;;;;27.58;16.37;;;;;;;7.85;46.83;99924.22;4451485;32;31787;-79
2021/03/18 08:17:26;;;;;;;24.15;15.20;;;;;;;7.87;47.16;99926.78;4450890;32;35416;-79
2021/03/18 08:19:54;;;;;;;25.17;15.10;;;;;;;7.79;47.38;99926.19;4444693;32;33313;-79
2021/03/18 08:22:28;;;;;;;22.05;14.38;;;;;;;7.87;47.07;99927.63;4465533;32;31554;-79
2021/03/18 08:25:24;;;;;;;23.38;14.90;;;;;;;7.94;46.50;99930.97;4458068;32;33938;-80
2021/03/18 08:27:52;;;;;;;24.37;13.70;;;;;;;8.07;46.00;99918.28;4460078;32;34065;-79
2021/03/18 08:30:24;;;;;;;25.45;15.60;;;;;;;7.90;46.57;99931.97;4448598;32;32247;-79
2021/03/18 08:32:51;;;;;;;23.12;15.05;;;;;;;8.01;46.21;99929.84;4472180;32;33585;-80
2021/03/18 08:35:29;;;;;;;26.75;16.08;;;;;;;7.99;46.55;99936.06;4474883;31;34137;-82
2021/03/18 08:38:19;;;;;;;25.35;16.15;;;;;;;8.17;46.15;99928.47;4474151;32;33744;-82
2021/03/18 08:41:00;;;;;;;25.35;13.73;;;;;;;8.32;45.23;99927.13;4467718;32;33165;-82
2021/03/18 08:43:27;;;;;;;31.20;15.55;;;;;;;8.15;45.52;99926.78;4465545;32;33401;-82
2021/03/18 08:45:54;;;;;;;27.70;14.90;;;;;;;8.17;45.52;99925.84;4440170;32;34297;-82
2021/03/18 08:48:22;;;;;;;21.95;14.10;;;;;;;8.50;44.56;99920.44;4455145;32;34485;-82
2021/03/18 08:50:52;;;;;;;19.55;12.73;;;;;;;8.65;44.36;99921.69;4442190;32;34127;-81
2021/03/18 08:53:31;;;;;;;23.83;13.62;;;;;;;8.55;44.19;99920.28;4463327;32;31430;-81
2021/03/18 08:55:59;;;;;;;19.83;12.98;;;;;;;8.50;44.03;99922.19;4472179;31;34227;-81
2021/03/18 08:58:27;;;;;;;18.98;12.77;;;;;;;8.92;42.87;99918.06;4463228;32;33124;-82
2021/03/18 09:00:54;;;;;;;23.75;14.82;;;;;;;8.92;43.23;99920.72;4466825;32;33273;-82
2021/03/18 09:03:22;;;;;;;18.70;13.52;;;;;;;8.86;44.56;99920.06;4451409;32;34481;-82
2021/03/18 09:05:57;;;;;;;19.52;13.50;;;;;;;8.79;43.58;99918.59;4462022;32;33622;-81
2021/03/18 09:08:35;;;;;;;20.27;12.95;;;;;;;8.64;43.91;99922.56;4461110;32;33739;-81
2021/03/18 09:11:21;;;;;;;20.20;13.20;;;;;;;9.12;42.26;99916.53;4454703;32;34110;-82
2021/03/18 09:13:48;;;;;;;24.05;13.05;;;;;;;8.78;42.66;99917.69;4453129;32;32208;-82
2021/03/18 09:16:20;;;;;;;18.42;11.73;;;;;;;9.07;42.17;99915.81;4440998;32;35090;-81
2021/03/18 09:18:48;;;;;;;16.25;10.88;;;;;;;9.35;41.51;99919.19;4438682;32;33919;-82
2021/03/18 09:21:16;;;;;;;18.73;12.00;;;;;;;9.48;40.87;99915.16;4476146;31;33742;-82
2021/03/18 09:23:45;;;;;;;15.70;10.57;;;;;;;9.22;41.73;99910.03;4457236;32;33531;-82
2021/03/18 09:26:15;;;;;;;16.77;9.68;;;;;;;9.86;39.13;99912.84;4451331;32;33517;-81
2021/03/18 09:28:46;;;;;;;17.87;10.52;;;;;;;9.66;38.92;99907.50;4449012;32;33549;-82
2021/03/18 09:31:14;;;;;;;13.85;9.30;;;;;;;9.61;40.01;99910.31;4444872;32;33972;-81
2021/03/18 09:33:43;;;;;;;16.42;9.95;;;;;;;9.60;39.10;99911.22;4465143;32;32323;-82
2021/03/18 09:36:14;;;;;;;12.90;8.07;;;;;;;9.91;36.29;99913.53;4476491;32;33233;-81
2021/03/18 09:39:08;;;;;;;13.02;7.78;;;;;;;10.23;35.30;99904.34;4480725;31;33373;-82
2021/03/18 09:41:38;;;;;;;8.32;6.35;;;;;;;9.78;36.20;99906.16;4475876;32;34631;-81
2021/03/18 09:44:09;;;;;;;9.00;6.30;;;;;;;9.38;35.60;99915.56;4465260;32;33199;-81
2021/03/18 09:46:37;;;;;;;8.32;6.32;;;;;;;9.56;34.84;99911.41;4478317;32;33600;-82
2021/03/18 09:49:06;;;;;;;14.50;8.27;;;;;;;9.58;35.81;99901.66;4464333;32;32487;-81
2021/03/18 09:51:39;;;;;;;12.98;6.53;;;;;;;9.51;35.74;99902.81;4464006;32;33033;-81
2021/03/18 09:54:08;;;;;;;11.00;6.47;;;;;;;9.04;37.38;99910.69;4449783;32;32757;-81
2021/03/18 09:56:42;;;;;;;10.73;7.25;;;;;;;9.11;36.04;99914.78;4460788;32;31871;-81
2021/03/18 09:59:13;;;;;;;12.55;7.22;;;;;;;9.26;37.14;99910.75;4471447;31;34241;-81
2021/03/18 10:01:40;;;;;;;9.73;7.45;;;;;;;8.74;36.57;99910.00;4462802;32;34010;-81
2021/03/18 10:04:19;;;;;;;13.62;6.65;;;;;;;9.37;35.77;99906.81;4459856;32;33802;-81
2021/03/18 10:06:51;;;;;;;12.13;7.45;;;;;;;9.55;35.18;99901.78;4469806;32;33618;-81
2021/03/18 10:09:31;;;;;;;10.77;6.55;;;;;;;9.49;35.10;99906.38;4471992;32;33606;-82
2021/03/18 10:12:05;;;;;;;12.18;7.03;;;;;;;9.67;35.02;99893.38;4445341;32;34081;-82
2021/03/18 10:14:44;;;;;;;11.85;7.22;;;;;;;9.51;36.34;99902.81;4446543;32;32825;-82
2021/03/18 10:17:16;;;;;;;16.37;10.48;;;;;;;9.58;35.99;99902.50;4461449;32;32671;-81
2021/03/18 10:19:52;;;;;;;11.40;7.62;;;;;;;9.32;35.98;99903.50;4460021;32;35292;-81
2021/03/18 10:22:21;;;;;;;11.85;7.22;;;;;;;9.44;35.92;99903.03;4455013;32;31560;-82
2021/03/18 10:25:00;;;;;;;14.20;7.70;;;;;;;9.63;35.47;99897.91;4450349;32;34201;-81
2021/03/18 10:27:33;;;;;;;12.05;7.87;;;;;;;9.65;35.19;99898.72;4465122;31;33584;-81
2021/03/18 10:30:21;;;;;;;10.40;6.93;;;;;;;8.80;37.33;99900.09;4454585;32;33684;-82
2021/03/18 10:33:08;;;;;;;11.98;7.78;;;;;;;9.07;36.60;99897.38;4452790;32;33102;-82
2021/03/18 10:35:44;;;;;;;11.52;7.00;;;;;;;8.67;36.98;99898.78;4459571;32;34044;-82
2021/03/18 10:38:15;;;;;;;12.27;7.15;;;;;;;8.84;36.38;99895.59;4437034;32;34345;-82
2021/03/18 10:40:45;;;;;;;8.88;6.85;;;;;;;8.71;36.41;99906.53;4462971;32;33525;-82
2021/03/18 10:43:20;;;;;;;13.95;7.25;;;;;;;8.15;38.74;99903.13;4441044;32;33876;-82
2021/03/18 10:45:47;;;;;;;11.55;7.12;;;;;;;8.24;39.41;99894.94;4458060;32;33456;-82
2021/03/18 10:48:22;;;;;;;11.52;7.82;;;;;;;8.78;36.86;99891.38;4459774;32;34117;-82
2021/03/18 10:50:51;;;;;;;9.90;6.32;;;;;;;9.08;36.65;99896.50;4460880;32;32496;-82
2021/03/18 10:53:23;;;;;;;9.38;5.68;;;;;;;8.45;36.98;99902.16;4445611;32;33957;-82
2021/03/18 10:56:10;;;;;;;8.57;6.03;;;;;;;8.39;37.32;99904.13;4459923;32;34408;-82
2021/03/18 10:58:39;;;;;;;24.83;7.68;;;;;;;8.87;36.64;99896.31;4458306;32;34310;-81
2021/03/18 11:01:19;;;;;;;10.35;6.35;;;;;;;9.15;36.28;99897.97;4452602;32;33926;-82
2021/03/18 11:03:48;;;;;;;10.77;6.70;;;;;;;8.92;37.59;99899.63;4469965;32;34153;-82
2021/03/18 11:06:18;;;;;;;23.90;11.45;;;;;;;9.11;37.07;99891.09;4467006;32;33626;-82
2021/03/18 11:08:48;;;;;;;21.33;10.98;;;;;;;9.06;37.18;99891.25;4465133;32;34435;-82
2021/03/18 11:11:20;;;;;;;14.45;9.43;;;;;;;8.77;37.31;99896.69;4444399;32;34859;-82
2021/03/18 11:13:47;;;;;;;18.15;8.07;;;;;;;9.05;37.80;99892.19;4455847;32;33636;-82
2021/03/18 11:16:24;;;;;;;9.95;6.80;;;;;;;9.42;35.70;99886.41;4468159;32;33007;-81
2021/03/18 11:18:57;;;;;;;9.15;6.53;;;;;;;9.58;35.42;99885.81;4463318;31;31943;-81
2021/03/18 11:21:29;;;;;;;10.27;6.45;;;;;;;9.95;33.41;99872.94;4454406;32;32025;-82
2021/03/18 11:24:13;;;;;;;8.77;5.75;;;;;;;9.35;35.13;99882.31;4442131;32;34367;-82
2021/03/18 11:26:55;;;;;;;11.40;6.50;;;;;;;9.07;38.87;99884.22;4457201;32;36762;-82
2021/03/18 11:29:26;;;;;;;8.85;6.43;;;;;;;9.20;37.26;99880.22;4471706;32;34673;-82
2021/03/18 11:31:55;;;;;;;33.28;13.80;;;;;;;9.20;37.04;99873.16;4469242;32;33572;-81
2021/03/18 11:34:28;;;;;;;23.92;11.85;;;;;;;8.95;36.82;99867.94;4445075;32;32430;-80
2021/03/18 11:36:58;;;;;;;14.13;8.77;;;;;;;9.37;35.59;99875.19;4453099;32;33116;-81
2021/03/18 11:39:26;;;;;;;13.75;8.13;;;;;;;9.32;36.43;99874.50;4455205;32;33552;-81
2021/03/18 11:41:56;;;;;;;13.80;8.13;;;;;;;9.30;37.25;99873.69;4454606;32;34214;-80
2021/03/18 11:44:25;;;;;;;19.27;10.52;;;;;;;9.81;34.58;99863.84;4453521;32;33884;-80
2021/03/18 11:46:58;;;;;;;25.73;11.48;;;;;;;9.39;36.69;99868.06;4459547;32;32716;-80
2021/03/18 11:49:26;;;;;;;15.23;8.30;;;;;;;9.34;38.15;99867.38;4457967;32;35357;-80